Terminal Aerodrome Forecast
Issued by NWS Northern Indiana

Home | Current Version | Previous Version | Text Only | Print | Product List | Glossary Off
Versions: 1 2 3 4 5 6 7 8 9 10 11 12

000
FTUS43 KIWX 211728
TAFFWA
TAF
KFWA 211728Z 2118/2218 25014G22KT P6SM BKN025
     FM211900 25011G20KT P6SM BKN035
     FM220100 26008KT P6SM BKN030
     FM220700 26007KT P6SM BKN035
     FM221600 26013KT P6SM SCT140=

USA.gov is the U.S. government's official web portal to all federal, state and local government web resources and services.